sensor_id;sensor_type;location;lat;lon;timestamp;pressure;altitude;pressure_sealevel;temperature;humidity
29815;BME280;16708;50.426;7.664;2022-12-07T00:00:44;988.22;;;3.91;100.00
29815;BME280;16708;50.426;7.664;2022-12-07T00:05:36;988.20;;;3.91;100.00
29815;BME280;16708;50.426;7.664;2022-12-07T00:10:30;988.13;;;3.72;100.00
29815;BME280;16708;50.426;7.664;2022-12-07T00:15:24;987.98;;;3.62;100.00
29815;BME280;16708;50.426;7.664;2022-12-07T00:20:18;988.04;;;3.69;100.00
29815;BME280;16708;50.426;7.664;2022-12-07T00:25:12;987.96;;;3.60;100.00
29815;BME280;16708;50.426;7.664;2022-12-07T00:30:06;987.98;;;3.56;100.00
29815;BME280;16708;50.426;7.664;2022-12-07T00:34:59;987.90;;;3.84;100.00
29815;BME280;16708;50.426;7.664;2022-12-07T00:39:54;987.93;;;3.63;100.00
29815;BME280;16708;50.426;7.664;2022-12-07T00:44:48;987.88;;;3.36;100.00
29815;BME280;16708;50.426;7.664;2022-12-07T00:49:42;987.82;;;3.52;100.00
29815;BME280;16708;50.426;7.664;2022-12-07T00:54:34;987.82;;;3.50;100.00
29815;BME280;16708;50.426;7.664;2022-12-07T00:59:26;987.88;;;3.40;100.00
29815;BME280;16708;50.426;7.664;2022-12-07T01:04:21;987.85;;;3.66;100.00
29815;BME280;16708;50.426;7.664;2022-12-07T01:09:15;987.84;;;3.51;100.00
29815;BME280;16708;50.426;7.664;2022-12-07T01:14:08;987.75;;;3.69;100.00
29815;BME280;16708;50.426;7.664;2022-12-07T01:19:02;987.80;;;3.51;100.00
29815;BME280;16708;50.426;7.664;2022-12-07T01:23:55;987.75;;;3.65;100.00
29815;BME280;16708;50.426;7.664;2022-12-07T01:28:50;987.73;;;3.94;100.00
29815;BME280;16708;50.426;7.664;2022-12-07T01:33:43;987.70;;;3.72;100.00
29815;BME280;16708;50.426;7.664;2022-12-07T01:38:38;987.74;;;3.59;100.00
29815;BME280;16708;50.426;7.664;2022-12-07T01:48:25;987.64;;;3.73;100.00
29815;BME280;16708;50.426;7.664;2022-12-07T01:53:19;987.60;;;3.73;100.00
29815;BME280;16708;50.426;7.664;2022-12-07T01:58:13;987.58;;;3.53;100.00
29815;BME280;16708;50.426;7.664;2022-12-07T02:03:07;987.53;;;2.89;100.00
29815;BME280;16708;50.426;7.664;2022-12-07T02:12:55;987.49;;;3.55;100.00
29815;BME280;16708;50.426;7.664;2022-12-07T02:22:42;987.50;;;3.47;100.00
29815;BME280;16708;50.426;7.664;2022-12-07T02:27:37;987.45;;;3.68;100.00
29815;BME280;16708;50.426;7.664;2022-12-07T02:32:31;987.33;;;3.72;100.00
29815;BME280;16708;50.426;7.664;2022-12-07T02:37:25;987.35;;;3.76;100.00
29815;BME280;16708;50.426;7.664;2022-12-07T02:42:19;987.43;;;3.66;100.00
29815;BME280;16708;50.426;7.664;2022-12-07T02:47:13;987.39;;;3.88;100.00
29815;BME280;16708;50.426;7.664;2022-12-07T02:52:07;987.31;;;3.77;100.00
29815;BME280;16708;50.426;7.664;2022-12-07T02:56:59;987.33;;;3.83;100.00
29815;BME280;16708;50.426;7.664;2022-12-07T03:06:47;987.27;;;3.88;100.00
29815;BME280;16708;50.426;7.664;2022-12-07T03:11:41;987.25;;;3.87;100.00
29815;BME280;16708;50.426;7.664;2022-12-07T03:16:36;987.27;;;3.20;100.00
29815;BME280;16708;50.426;7.664;2022-12-07T03:21:30;987.26;;;3.86;100.00
29815;BME280;16708;50.426;7.664;2022-12-07T03:26:24;987.21;;;3.83;100.00
29815;BME280;16708;50.426;7.664;2022-12-07T03:31:17;987.19;;;3.94;100.00
29815;BME280;16708;50.426;7.664;2022-12-07T03:36:11;987.22;;;3.89;100.00
29815;BME280;16708;50.426;7.664;2022-12-07T03:41:06;987.19;;;3.67;100.00
29815;BME280;16708;50.426;7.664;2022-12-07T03:45:58;987.20;;;3.63;100.00
29815;BME280;16708;50.426;7.664;2022-12-07T03:50:53;987.13;;;4.05;100.00
29815;BME280;16708;50.426;7.664;2022-12-07T03:55:45;987.06;;;4.01;100.00
29815;BME280;16708;50.426;7.664;2022-12-07T04:00:39;986.99;;;4.10;100.00
29815;BME280;16708;50.426;7.664;2022-12-07T04:05:33;986.99;;;4.06;100.00
29815;BME280;16708;50.426;7.664;2022-12-07T04:10:27;987.06;;;4.04;100.00
29815;BME280;16708;50.426;7.664;2022-12-07T04:15:22;987.03;;;4.02;100.00
29815;BME280;16708;50.426;7.664;2022-12-07T04:20:16;987.08;;;3.95;100.00
29815;BME280;16708;50.426;7.664;2022-12-07T04:25:09;987.08;;;3.94;100.00
29815;BME280;16708;50.426;7.664;2022-12-07T04:30:03;987.10;;;4.02;100.00
29815;BME280;16708;50.426;7.664;2022-12-07T04:34:57;987.02;;;3.97;100.00
29815;BME280;16708;50.426;7.664;2022-12-07T04:39:51;987.01;;;4.09;100.00
29815;BME280;16708;50.426;7.664;2022-12-07T04:44:45;987.01;;;4.31;100.00
29815;BME280;16708;50.426;7.664;2022-12-07T04:49:39;987.10;;;3.44;100.00
29815;BME280;16708;50.426;7.664;2022-12-07T04:54:33;987.02;;;4.37;100.00
29815;BME280;16708;50.426;7.664;2022-12-07T04:59:28;987.07;;;4.09;100.00
29815;BME280;16708;50.426;7.664;2022-12-07T05:04:21;987.00;;;4.24;100.00
29815;BME280;16708;50.426;7.664;2022-12-07T05:09:14;986.97;;;4.14;100.00
29815;BME280;16708;50.426;7.664;2022-12-07T05:14:09;987.07;;;4.34;100.00
29815;BME280;16708;50.426;7.664;2022-12-07T05:19:03;987.13;;;4.18;100.00
29815;BME280;16708;50.426;7.664;2022-12-07T05:23:57;987.05;;;4.23;100.00
29815;BME280;16708;50.426;7.664;2022-12-07T05:28:51;987.10;;;4.26;100.00
29815;BME280;16708;50.426;7.664;2022-12-07T05:33:45;987.14;;;4.23;100.00
29815;BME280;16708;50.426;7.664;2022-12-07T05:38:39;987.08;;;4.11;100.00
29815;BME280;16708;50.426;7.664;2022-12-07T05:43:34;987.06;;;4.32;100.00
29815;BME280;16708;50.426;7.664;2022-12-07T05:48:28;987.11;;;4.10;100.00
29815;BME280;16708;50.426;7.664;2022-12-07T05:53:23;987.04;;;4.23;100.00
29815;BME280;16708;50.426;7.664;2022-12-07T05:58:17;987.02;;;4.19;100.00
29815;BME280;16708;50.426;7.664;2022-12-07T06:03:11;987.00;;;4.21;100.00
29815;BME280;16708;50.426;7.664;2022-12-07T06:08:04;987.02;;;4.12;100.00
29815;BME280;16708;50.426;7.664;2022-12-07T06:12:57;986.96;;;4.27;100.00
29815;BME280;16708;50.426;7.664;2022-12-07T06:17:51;987.05;;;4.25;100.00
29815;BME280;16708;50.426;7.664;2022-12-07T06:22:45;987.02;;;4.31;100.00
29815;BME280;16708;50.426;7.664;2022-12-07T06:27:39;987.10;;;4.17;100.00
29815;BME280;16708;50.426;7.664;2022-12-07T06:32:34;987.23;;;3.91;100.00
29815;BME280;16708;50.426;7.664;2022-12-07T06:37:28;987.20;;;3.39;100.00
29815;BME280;16708;50.426;7.664;2022-12-07T06:42:22;987.23;;;3.49;100.00
29815;BME280;16708;50.426;7.664;2022-12-07T06:56:57;987.19;;;3.60;100.00
29815;BME280;16708;50.426;7.664;2022-12-07T07:01:51;987.13;;;3.62;100.00
29815;BME280;16708;50.426;7.664;2022-12-07T07:06:46;987.24;;;3.58;100.00
29815;BME280;16708;50.426;7.664;2022-12-07T07:11:38;987.43;;;3.57;100.00
29815;BME280;16708;50.426;7.664;2022-12-07T07:16:32;987.36;;;3.69;100.00
29815;BME280;16708;50.426;7.664;2022-12-07T07:21:25;987.37;;;3.58;100.00
29815;BME280;16708;50.426;7.664;2022-12-07T07:26:19;987.37;;;3.51;100.00
29815;BME280;16708;50.426;7.664;2022-12-07T07:31:12;987.43;;;3.59;100.00
29815;BME280;16708;50.426;7.664;2022-12-07T07:36:06;987.56;;;3.61;100.00
29815;BME280;16708;50.426;7.664;2022-12-07T07:41:00;987.53;;;3.65;100.00
29815;BME280;16708;50.426;7.664;2022-12-07T07:45:53;987.46;;;3.95;100.00
29815;BME280;16708;50.426;7.664;2022-12-07T07:50:48;987.45;;;4.15;100.00
29815;BME280;16708;50.426;7.664;2022-12-07T07:55:42;987.47;;;4.13;100.00
29815;BME280;16708;50.426;7.664;2022-12-07T08:00:36;987.51;;;4.14;100.00
29815;BME280;16708;50.426;7.664;2022-12-07T08:05:30;987.42;;;3.99;100.00
29815;BME280;16708;50.426;7.664;2022-12-07T08:10:25;987.48;;;3.76;100.00
29815;BME280;16708;50.426;7.664;2022-12-07T08:15:18;987.47;;;3.80;100.00
29815;BME280;16708;50.426;7.664;2022-12-07T08:20:13;987.53;;;3.76;100.00
29815;BME280;16708;50.426;7.664;2022-12-07T08:25:07;987.53;;;3.90;100.00
29815;BME280;16708;50.426;7.664;2022-12-07T08:30:01;987.53;;;3.89;100.00
29815;BME280;16708;50.426;7.664;2022-12-07T08:34:55;987.43;;;3.72;100.00
29815;BME280;16708;50.426;7.664;2022-12-07T08:39:49;987.49;;;3.78;100.00
29815;BME280;16708;50.426;7.664;2022-12-07T08:44:44;987.52;;;4.35;100.00
29815;BME280;16708;50.426;7.664;2022-12-07T08:49:38;987.61;;;4.51;100.00
29815;BME280;16708;50.426;7.664;2022-12-07T08:54:32;987.63;;;4.34;100.00
29815;BME280;16708;50.426;7.664;2022-12-07T08:59:29;987.65;;;4.19;100.00
29815;BME280;16708;50.426;7.664;2022-12-07T09:04:20;987.58;;;4.31;100.00
29815;BME280;16708;50.426;7.664;2022-12-07T09:09:14;987.61;;;6.97;100.00
29815;BME280;16708;50.426;7.664;2022-12-07T09:14:08;987.58;;;4.97;100.00
29815;BME280;16708;50.426;7.664;2022-12-07T09:19:02;987.67;;;4.86;100.00
29815;BME280;16708;50.426;7.664;2022-12-07T09:23:57;987.68;;;4.60;100.00
29815;BME280;16708;50.426;7.664;2022-12-07T09:28:50;987.70;;;4.47;100.00
29815;BME280;16708;50.426;7.664;2022-12-07T09:33:44;987.70;;;4.39;100.00
29815;BME280;16708;50.426;7.664;2022-12-07T09:38:38;987.75;;;4.50;100.00
29815;BME280;16708;50.426;7.664;2022-12-07T09:43:32;987.76;;;4.43;100.00
29815;BME280;16708;50.426;7.664;2022-12-07T09:48:26;987.73;;;4.41;100.00
29815;BME280;16708;50.426;7.664;2022-12-07T09:53:20;987.71;;;4.03;100.00
29815;BME280;16708;50.426;7.664;2022-12-07T09:58:14;987.70;;;3.88;100.00
29815;BME280;16708;50.426;7.664;2022-12-07T10:03:07;987.64;;;4.00;100.00
29815;BME280;16708;50.426;7.664;2022-12-07T10:08:01;987.58;;;4.31;100.00
29815;BME280;16708;50.426;7.664;2022-12-07T10:12:55;987.40;;;4.59;100.00
29815;BME280;16708;50.426;7.664;2022-12-07T10:27:38;987.37;;;4.21;100.00
29815;BME280;16708;50.426;7.664;2022-12-07T10:37:25;987.27;;;4.48;100.00
29815;BME280;16708;50.426;7.664;2022-12-07T11:01:53;987.03;;;6.60;100.00
29815;BME280;16708;50.426;7.664;2022-12-07T11:06:48;986.97;;;5.53;100.00
29815;BME280;16708;50.426;7.664;2022-12-07T11:11:42;986.90;;;4.55;100.00
29815;BME280;16708;50.426;7.664;2022-12-07T11:16:36;986.93;;;4.32;100.00
29815;BME280;16708;50.426;7.664;2022-12-07T11:31:18;986.80;;;4.94;100.00
29815;BME280;16708;50.426;7.664;2022-12-07T11:36:13;986.68;;;5.48;100.00
29815;BME280;16708;50.426;7.664;2022-12-07T11:41:07;986.68;;;5.17;100.00
29815;BME280;16708;50.426;7.664;2022-12-07T11:46:01;986.61;;;4.94;100.00
29815;BME280;16708;50.426;7.664;2022-12-07T11:50:55;986.49;;;4.68;100.00
29815;BME280;16708;50.426;7.664;2022-12-07T11:55:50;986.47;;;4.93;100.00
29815;BME280;16708;50.426;7.664;2022-12-07T12:00:43;986.40;;;4.69;100.00
29815;BME280;16708;50.426;7.664;2022-12-07T12:05:37;986.46;;;4.77;100.00
29815;BME280;16708;50.426;7.664;2022-12-07T12:15:25;986.35;;;7.00;100.00
29815;BME280;16708;50.426;7.664;2022-12-07T12:20:20;986.28;;;12.11;100.00
29815;BME280;16708;50.426;7.664;2022-12-07T12:25:15;986.27;;;9.81;100.00
29815;BME280;16708;50.426;7.664;2022-12-07T13:04:23;986.23;;;5.77;100.00
29815;BME280;16708;50.426;7.664;2022-12-07T13:09:17;986.01;;;11.50;100.00
29815;BME280;16708;50.426;7.664;2022-12-07T13:14:12;986.04;;;6.74;100.00
29815;BME280;16708;50.426;7.664;2022-12-07T13:19:05;986.07;;;5.84;100.00
29815;BME280;16708;50.426;7.664;2022-12-07T13:23:59;986.06;;;5.62;100.00
29815;BME280;16708;50.426;7.664;2022-12-07T13:48:29;985.81;;;13.34;82.12
29815;BME280;16708;50.426;7.664;2022-12-07T13:53:23;985.82;;;10.58;100.00
29815;BME280;16708;50.426;7.664;2022-12-07T13:58:15;985.79;;;6.12;100.00
29815;BME280;16708;50.426;7.664;2022-12-07T14:07:59;985.81;;;5.60;100.00
29815;BME280;16708;50.426;7.664;2022-12-07T14:12:53;985.76;;;7.59;100.00
29815;BME280;16708;50.426;7.664;2022-12-07T14:17:47;985.81;;;9.56;100.00
29815;BME280;16708;50.426;7.664;2022-12-07T14:27:34;985.77;;;9.50;100.00
29815;BME280;16708;50.426;7.664;2022-12-07T14:32:29;985.76;;;6.32;100.00
29815;BME280;16708;50.426;7.664;2022-12-07T14:37:21;985.69;;;5.46;100.00
29815;BME280;16708;50.426;7.664;2022-12-07T14:42:15;985.64;;;5.42;100.00
29815;BME280;16708;50.426;7.664;2022-12-07T14:47:08;985.62;;;4.98;100.00
29815;BME280;16708;50.426;7.664;2022-12-07T14:52:02;985.65;;;4.90;100.00
29815;BME280;16708;50.426;7.664;2022-12-07T14:56:55;985.66;;;4.54;100.00
29815;BME280;16708;50.426;7.664;2022-12-07T15:01:49;985.62;;;4.48;100.00
29815;BME280;16708;50.426;7.664;2022-12-07T15:06:43;985.61;;;4.41;100.00
29815;BME280;16708;50.426;7.664;2022-12-07T15:11:37;985.46;;;4.21;100.00
29815;BME280;16708;50.426;7.664;2022-12-07T15:16:29;985.50;;;4.08;100.00
29815;BME280;16708;50.426;7.664;2022-12-07T15:21:23;985.48;;;3.66;100.00
29815;BME280;16708;50.426;7.664;2022-12-07T15:26:17;985.55;;;3.66;100.00
29815;BME280;16708;50.426;7.664;2022-12-07T15:31:11;985.49;;;3.81;100.00
29815;BME280;16708;50.426;7.664;2022-12-07T15:36:05;985.42;;;3.88;100.00
29815;BME280;16708;50.426;7.664;2022-12-07T15:40:59;985.47;;;3.80;100.00
29815;BME280;16708;50.426;7.664;2022-12-07T15:45:52;985.41;;;3.84;100.00
29815;BME280;16708;50.426;7.664;2022-12-07T15:50:46;985.42;;;3.81;100.00
29815;BME280;16708;50.426;7.664;2022-12-07T15:55:40;985.32;;;3.74;100.00
29815;BME280;16708;50.426;7.664;2022-12-07T16:00:34;985.24;;;3.81;100.00
29815;BME280;16708;50.426;7.664;2022-12-07T16:05:28;985.13;;;3.72;100.00
29815;BME280;16708;50.426;7.664;2022-12-07T16:10:22;985.11;;;3.85;100.00
29815;BME280;16708;50.426;7.664;2022-12-07T16:15:16;985.11;;;3.89;100.00
29815;BME280;16708;50.426;7.664;2022-12-07T16:20:10;985.10;;;3.79;100.00
29815;BME280;16708;50.426;7.664;2022-12-07T16:25:04;985.11;;;3.82;100.00
29815;BME280;16708;50.426;7.664;2022-12-07T16:29:58;985.12;;;3.79;100.00
29815;BME280;16708;50.426;7.664;2022-12-07T16:34:52;985.16;;;3.49;100.00
29815;BME280;16708;50.426;7.664;2022-12-07T16:39:46;985.15;;;3.54;100.00
29815;BME280;16708;50.426;7.664;2022-12-07T16:44:40;985.14;;;3.55;100.00
29815;BME280;16708;50.426;7.664;2022-12-07T16:49:34;984.99;;;3.62;100.00
29815;BME280;16708;50.426;7.664;2022-12-07T16:54:28;984.87;;;3.54;100.00
29815;BME280;16708;50.426;7.664;2022-12-07T16:59:22;984.87;;;3.51;100.00
29815;BME280;16708;50.426;7.664;2022-12-07T17:04:17;984.90;;;3.59;100.00
29815;BME280;16708;50.426;7.664;2022-12-07T17:09:09;984.93;;;3.46;100.00
29815;BME280;16708;50.426;7.664;2022-12-07T17:14:03;984.89;;;3.49;100.00
29815;BME280;16708;50.426;7.664;2022-12-07T17:18:57;984.78;;;3.43;100.00
29815;BME280;16708;50.426;7.664;2022-12-07T17:23:51;984.78;;;3.46;100.00
29815;BME280;16708;50.426;7.664;2022-12-07T17:28:45;984.80;;;3.30;100.00
29815;BME280;16708;50.426;7.664;2022-12-07T17:33:38;984.76;;;3.23;100.00
29815;BME280;16708;50.426;7.664;2022-12-07T17:38:32;984.77;;;3.25;100.00
29815;BME280;16708;50.426;7.664;2022-12-07T17:43:26;984.79;;;3.23;100.00
29815;BME280;16708;50.426;7.664;2022-12-07T17:48:19;984.81;;;3.24;100.00
29815;BME280;16708;50.426;7.664;2022-12-07T17:53:13;984.76;;;3.37;100.00
29815;BME280;16708;50.426;7.664;2022-12-07T17:58:07;984.77;;;3.39;100.00
29815;BME280;16708;50.426;7.664;2022-12-07T18:03:01;984.72;;;3.40;100.00
29815;BME280;16708;50.426;7.664;2022-12-07T18:07:54;984.64;;;3.40;100.00
29815;BME280;16708;50.426;7.664;2022-12-07T18:12:46;984.71;;;3.35;100.00
29815;BME280;16708;50.426;7.664;2022-12-07T18:17:40;984.59;;;3.37;100.00
29815;BME280;16708;50.426;7.664;2022-12-07T18:22:33;984.65;;;3.44;100.00
29815;BME280;16708;50.426;7.664;2022-12-07T18:27:27;984.57;;;3.42;100.00
29815;BME280;16708;50.426;7.664;2022-12-07T18:32:24;984.52;;;3.46;100.00
29815;BME280;16708;50.426;7.664;2022-12-07T18:37:14;984.44;;;3.44;100.00
29815;BME280;16708;50.426;7.664;2022-12-07T18:42:08;984.41;;;3.30;100.00
29815;BME280;16708;50.426;7.664;2022-12-07T18:47:02;984.40;;;3.31;100.00
29815;BME280;16708;50.426;7.664;2022-12-07T18:51:56;984.35;;;3.31;100.00
29815;BME280;16708;50.426;7.664;2022-12-07T18:56:50;984.37;;;3.34;100.00
29815;BME280;16708;50.426;7.664;2022-12-07T19:01:44;984.36;;;3.50;100.00
29815;BME280;16708;50.426;7.664;2022-12-07T19:06:38;984.27;;;3.38;100.00
29815;BME280;16708;50.426;7.664;2022-12-07T19:11:33;984.28;;;3.58;100.00
29815;BME280;16708;50.426;7.664;2022-12-07T19:16:27;984.20;;;3.48;100.00
29815;BME280;16708;50.426;7.664;2022-12-07T19:21:21;984.25;;;3.57;100.00
29815;BME280;16708;50.426;7.664;2022-12-07T19:26:15;984.23;;;3.47;100.00
29815;BME280;16708;50.426;7.664;2022-12-07T19:31:09;984.27;;;3.44;100.00
29815;BME280;16708;50.426;7.664;2022-12-07T19:36:01;984.22;;;3.52;100.00
29815;BME280;16708;50.426;7.664;2022-12-07T19:40:54;984.20;;;3.51;100.00
29815;BME280;16708;50.426;7.664;2022-12-07T19:45:48;984.11;;;3.38;100.00
29815;BME280;16708;50.426;7.664;2022-12-07T19:50:40;983.99;;;3.42;100.00
29815;BME280;16708;50.426;7.664;2022-12-07T19:55:33;984.02;;;3.43;100.00
29815;BME280;16708;50.426;7.664;2022-12-07T20:00:28;984.07;;;3.60;100.00
29815;BME280;16708;50.426;7.664;2022-12-07T20:05:21;984.10;;;3.49;100.00
29815;BME280;16708;50.426;7.664;2022-12-07T20:10:15;983.95;;;3.38;100.00
29815;BME280;16708;50.426;7.664;2022-12-07T20:15:10;983.86;;;3.46;100.00
29815;BME280;16708;50.426;7.664;2022-12-07T20:20:03;983.87;;;3.30;100.00
29815;BME280;16708;50.426;7.664;2022-12-07T20:24:57;983.86;;;3.32;100.00
29815;BME280;16708;50.426;7.664;2022-12-07T20:29:51;983.85;;;3.35;100.00
29815;BME280;16708;50.426;7.664;2022-12-07T20:34:45;983.85;;;3.35;100.00
29815;BME280;16708;50.426;7.664;2022-12-07T20:39:39;983.79;;;3.39;100.00
29815;BME280;16708;50.426;7.664;2022-12-07T20:44:33;983.83;;;3.48;100.00
29815;BME280;16708;50.426;7.664;2022-12-07T20:49:25;983.80;;;3.49;100.00
29815;BME280;16708;50.426;7.664;2022-12-07T20:54:17;983.72;;;3.52;100.00
29815;BME280;16708;50.426;7.664;2022-12-07T20:59:11;983.66;;;3.58;100.00
29815;BME280;16708;50.426;7.664;2022-12-07T21:04:06;983.72;;;3.56;100.00
29815;BME280;16708;50.426;7.664;2022-12-07T21:08:59;983.62;;;3.62;100.00
29815;BME280;16708;50.426;7.664;2022-12-07T21:23:35;983.51;;;3.64;100.00
29815;BME280;16708;50.426;7.664;2022-12-07T21:28:27;983.47;;;3.60;100.00
29815;BME280;16708;50.426;7.664;2022-12-07T21:33:21;983.55;;;3.46;100.00
29815;BME280;16708;50.426;7.664;2022-12-07T21:38:14;983.44;;;3.41;100.00
29815;BME280;16708;50.426;7.664;2022-12-07T21:43:08;983.45;;;3.29;100.00
29815;BME280;16708;50.426;7.664;2022-12-07T21:48:03;983.47;;;3.41;100.00
29815;BME280;16708;50.426;7.664;2022-12-07T21:52:57;983.37;;;3.43;100.00
29815;BME280;16708;50.426;7.664;2022-12-07T21:57:51;983.32;;;3.31;100.00
29815;BME280;16708;50.426;7.664;2022-12-07T22:02:48;983.38;;;3.30;100.00
29815;BME280;16708;50.426;7.664;2022-12-07T22:07:39;983.33;;;3.35;100.00
29815;BME280;16708;50.426;7.664;2022-12-07T22:12:31;983.26;;;3.35;100.00
29815;BME280;16708;50.426;7.664;2022-12-07T22:17:24;983.24;;;3.26;100.00
29815;BME280;16708;50.426;7.664;2022-12-07T22:22:18;983.30;;;3.28;100.00
29815;BME280;16708;50.426;7.664;2022-12-07T22:27:10;983.22;;;3.23;100.00
29815;BME280;16708;50.426;7.664;2022-12-07T22:32:03;983.23;;;3.25;100.00
29815;BME280;16708;50.426;7.664;2022-12-07T22:36:55;983.17;;;3.11;100.00
29815;BME280;16708;50.426;7.664;2022-12-07T22:41:50;983.21;;;3.20;100.00
29815;BME280;16708;50.426;7.664;2022-12-07T22:46:44;983.14;;;3.30;100.00
29815;BME280;16708;50.426;7.664;2022-12-07T22:51:38;983.04;;;3.26;100.00
29815;BME280;16708;50.426;7.664;2022-12-07T22:56:30;983.09;;;3.25;100.00
29815;BME280;16708;50.426;7.664;2022-12-07T23:01:28;983.01;;;3.24;100.00
29815;BME280;16708;50.426;7.664;2022-12-07T23:06:18;982.90;;;3.34;100.00
29815;BME280;16708;50.426;7.664;2022-12-07T23:11:12;982.81;;;3.31;100.00
29815;BME280;16708;50.426;7.664;2022-12-07T23:16:06;982.80;;;3.29;100.00
29815;BME280;16708;50.426;7.664;2022-12-07T23:20:58;982.71;;;3.30;100.00
29815;BME280;16708;50.426;7.664;2022-12-07T23:25:52;982.74;;;3.29;100.00
29815;BME280;16708;50.426;7.664;2022-12-07T23:30:46;982.70;;;3.32;100.00
29815;BME280;16708;50.426;7.664;2022-12-07T23:35:40;982.64;;;3.38;100.00
29815;BME280;16708;50.426;7.664;2022-12-07T23:40:34;982.61;;;3.38;100.00
29815;BME280;16708;50.426;7.664;2022-12-07T23:45:29;982.57;;;3.36;100.00
29815;BME280;16708;50.426;7.664;2022-12-07T23:50:23;982.46;;;3.22;100.00
29815;BME280;16708;50.426;7.664;2022-12-07T23:55:18;982.40;;;3.26;100.00
